createdAt,value
2019-04-06T00:00:17.297Z,59.60
2019-04-06T00:01:17.285Z,63.20
2019-04-06T00:02:17.295Z,59.20
2019-04-06T00:03:17.276Z,65.30
2019-04-06T00:04:17.255Z,54.30
2019-04-06T00:05:17.274Z,61.90
2019-04-06T00:06:17.237Z,63.90
2019-04-06T00:07:17.239Z,58.90
2019-04-06T00:08:17.213Z,62.40
2019-04-06T00:09:17.194Z,63.60
2019-04-06T00:10:17.205Z,68.50
2019-04-06T00:11:17.175Z,59.60
2019-04-06T00:12:17.161Z,57.50
2019-04-06T00:13:17.148Z,62.60
2019-04-06T00:14:17.160Z,63.90
2019-04-06T00:15:17.127Z,61.60
2019-04-06T00:16:17.117Z,71.00
2019-04-06T00:17:17.109Z,72.10
2019-04-06T00:18:17.121Z,76.50
2019-04-06T00:19:17.116Z,76.20
2019-04-06T00:20:17.070Z,69.40
2019-04-06T00:21:17.059Z,64.80
2019-04-06T00:22:17.050Z,56.90
2019-04-06T00:23:17.046Z,67.80
2019-04-06T00:24:17.097Z,57.00
2019-04-06T00:25:17.023Z,60.40
2019-04-06T00:26:17.003Z,54.40
2019-04-06T00:27:16.997Z,51.50
2019-04-06T00:28:17.075Z,64.50
2019-04-06T00:29:17.003Z,62.10
2019-04-06T00:30:16.959Z,71.20
2019-04-06T00:31:16.956Z,68.30
2019-04-06T00:32:16.937Z,61.20
2019-04-06T00:33:16.927Z,58.90
2019-04-06T00:34:16.943Z,51.20
2019-04-06T00:35:16.906Z,50.60
2019-04-06T00:36:16.892Z,61.20
2019-04-06T00:37:16.885Z,50.60
2019-04-06T00:38:16.872Z,52.80
2019-04-06T00:39:16.884Z,52.50
2019-04-06T00:40:16.865Z,51.30
2019-04-06T00:41:16.866Z,50.40
2019-04-06T00:42:16.825Z,57.40
2019-04-06T00:43:16.817Z,60.40
2019-04-06T00:44:16.982Z,58.50
2019-04-06T00:45:16.793Z,62.40
2019-04-06T00:46:16.780Z,58.90
2019-04-06T00:47:16.846Z,52.10
2019-04-06T00:48:16.756Z,48.80
2019-04-06T00:49:16.913Z,55.00
2019-04-06T00:50:16.742Z,63.00
2019-04-06T00:51:16.724Z,67.90
2019-04-06T00:52:16.711Z,62.20
2019-04-06T00:53:16.772Z,65.20
2019-04-06T00:54:17.169Z,62.70
2019-04-06T00:55:16.684Z,59.20
2019-04-06T00:56:16.666Z,71.10
2019-04-06T00:57:16.678Z,72.30
2019-04-06T00:58:16.918Z,70.00
2019-04-06T00:59:16.632Z,65.30
2019-04-06T01:00:16.620Z,64.10
2019-04-06T01:01:16.618Z,66.90
2019-04-06T01:02:16.642Z,61.60
2019-04-06T01:03:16.610Z,66.70
2019-04-06T01:04:16.637Z,71.50
2019-04-06T01:05:16.565Z,65.90
2019-04-06T01:06:16.553Z,64.10
2019-04-06T01:07:16.654Z,68.80
2019-04-06T01:08:16.556Z,62.30
2019-04-06T01:09:16.519Z,71.10
2019-04-06T01:10:16.511Z,63.20
2019-04-06T01:11:16.497Z,57.00
2019-04-06T01:12:16.486Z,55.50
2019-04-06T01:13:16.509Z,64.80
2019-04-06T01:14:16.466Z,60.30
2019-04-06T01:15:16.459Z,69.50
2019-04-06T01:16:16.622Z,66.30
2019-04-06T01:17:16.430Z,68.20
2019-04-06T01:18:16.443Z,71.20
2019-04-06T01:19:16.408Z,71.50
2019-04-06T01:20:16.398Z,73.10
2019-04-06T01:21:16.392Z,70.10
2019-04-06T01:22:16.378Z,72.60
2019-04-06T01:23:16.380Z,66.30
2019-04-06T01:24:16.351Z,76.00
2019-04-06T01:25:16.550Z,71.00
2019-04-06T01:26:16.333Z,71.90
2019-04-06T01:27:16.318Z,72.40
2019-04-06T01:28:16.312Z,69.40
2019-04-06T01:29:16.313Z,67.30
2019-04-06T01:30:16.302Z,66.90
2019-04-06T01:31:16.273Z,70.50
2019-04-06T01:32:16.262Z,71.10
2019-04-06T01:33:16.275Z,71.70
2019-04-06T01:34:16.242Z,71.40
2019-04-06T01:35:16.228Z,66.50
2019-04-06T01:36:16.259Z,69.90
2019-04-06T01:37:16.207Z,69.60
2019-04-06T01:38:16.217Z,68.90
2019-04-06T01:39:16.190Z,62.40
2019-04-06T01:40:16.172Z,62.90
2019-04-06T01:41:16.165Z,61.00
2019-04-06T01:42:16.170Z,72.00
2019-04-06T01:43:16.165Z,61.70
2019-04-06T01:44:16.130Z,63.40
2019-04-06T01:45:16.116Z,70.40
2019-04-06T01:46:16.142Z,55.70
2019-04-06T01:47:16.098Z,62.40
2019-04-06T01:48:16.113Z,64.60
2019-04-06T01:49:16.101Z,76.10
2019-04-06T01:50:16.188Z,71.40
2019-04-06T01:51:16.050Z,66.00
2019-04-06T01:52:16.056Z,78.40
2019-04-06T01:53:16.054Z,84.30
2019-04-06T01:54:16.021Z,81.60
2019-04-06T01:55:16.007Z,77.40
2019-04-06T01:56:18.773Z,81.20
2019-04-06T01:57:15.983Z,80.60
2019-04-06T01:58:15.997Z,74.00
2019-04-06T01:59:15.962Z,79.20
2019-04-06T02:00:16.004Z,85.30
2019-04-06T02:01:15.942Z,82.40
2019-04-06T02:02:16.013Z,105.60
2019-04-06T02:03:15.939Z,98.30
2019-04-06T02:04:15.906Z,105.50
2019-04-06T02:05:15.897Z,117.50
2019-04-06T02:06:15.885Z,104.30
2019-04-06T02:07:15.904Z,97.70
2019-04-06T02:08:15.957Z,96.30
2019-04-06T02:09:15.859Z,102.00
2019-04-06T02:10:15.844Z,111.70
2019-04-06T02:11:15.855Z,123.30
2019-04-06T02:12:15.829Z,120.20
2019-04-06T02:13:15.839Z,106.60
2019-04-06T02:14:15.793Z,134.40
2019-04-06T02:15:15.851Z,110.10
2019-04-06T02:16:15.770Z,119.70
2019-04-06T02:17:15.760Z,123.80
2019-04-06T02:18:15.771Z,102.70
2019-04-06T02:19:15.737Z,105.10
2019-04-06T02:20:15.749Z,97.70
2019-04-06T02:21:15.805Z,121.00
2019-04-06T02:22:15.703Z,125.40
2019-04-06T02:23:15.693Z,113.60
2019-04-06T02:24:15.682Z,117.10
2019-04-06T02:25:15.695Z,129.80
2019-04-06T02:26:15.665Z,117.60
2019-04-06T02:27:15.647Z,127.60
2019-04-06T02:28:15.636Z,111.70
2019-04-06T02:29:15.628Z,105.90
2019-04-06T02:30:15.641Z,106.40
2019-04-06T02:31:15.603Z,86.00
2019-04-06T02:32:15.605Z,85.40
2019-04-06T02:33:15.615Z,103.30
2019-04-06T02:34:15.570Z,108.90
2019-04-06T02:35:15.560Z,97.60
2019-04-06T02:36:15.574Z,124.40
2019-04-06T02:37:15.671Z,124.00
2019-04-06T02:38:15.546Z,114.40
2019-04-06T02:39:15.519Z,85.10
2019-04-06T02:40:15.512Z,93.50
2019-04-06T02:41:15.497Z,114.30
2019-04-06T02:42:15.510Z,122.10
2019-04-06T02:43:15.470Z,129.30
2019-04-06T02:44:15.459Z,101.40
2019-04-06T02:45:15.448Z,129.50
2019-04-06T02:46:15.435Z,111.70
2019-04-06T02:47:15.447Z,114.70
2019-04-06T02:48:15.421Z,128.40
2019-04-06T02:49:15.432Z,156.40
2019-04-06T02:50:15.394Z,183.40
2019-04-06T02:51:15.406Z,183.80
2019-04-06T02:52:15.368Z,168.30
2019-04-06T02:53:15.515Z,214.00
2019-04-06T02:54:15.371Z,218.30
2019-04-06T02:55:15.339Z,255.60
2019-04-06T02:56:15.327Z,221.20
2019-04-06T02:57:15.321Z,203.50
2019-04-06T02:58:15.301Z,181.80
2019-04-06T02:59:15.313Z,206.80
2019-04-06T03:00:15.413Z,191.80
2019-04-06T03:01:15.293Z,147.40
2019-04-06T03:02:15.261Z,136.60
2019-04-06T03:03:15.245Z,110.90
2019-04-06T03:04:15.235Z,119.70
2019-04-06T03:05:15.247Z,111.20
2019-04-06T03:06:15.210Z,91.10
2019-04-06T03:07:15.200Z,88.90
2019-04-06T03:08:15.201Z,93.20
2019-04-06T03:09:15.225Z,87.40
2019-04-06T03:10:15.194Z,90.30
2019-04-06T03:11:15.154Z,86.50
2019-04-06T03:12:15.143Z,87.70
2019-04-06T03:13:15.142Z,92.50
2019-04-06T03:14:15.156Z,93.50
2019-04-06T03:15:15.113Z,99.00
2019-04-06T03:16:15.099Z,99.30
2019-04-06T03:17:15.089Z,85.40
2019-04-06T03:18:15.077Z,73.30
2019-04-06T03:19:15.081Z,75.40
2019-04-06T03:20:15.062Z,86.90
2019-04-06T03:21:15.072Z,90.00
2019-04-06T03:22:15.041Z,77.00
2019-04-06T03:23:15.161Z,88.10
2019-04-06T03:24:15.048Z,99.20
2019-04-06T03:25:15.002Z,99.10
2019-04-06T03:26:14.988Z,95.10
2019-04-06T03:27:14.977Z,91.20
2019-04-06T03:28:14.968Z,88.50
2019-04-06T03:29:14.982Z,98.50
2019-04-06T03:30:14.969Z,81.20
2019-04-06T03:31:14.935Z,70.50
2019-04-06T03:32:15.003Z,86.30
2019-04-06T03:33:14.910Z,77.20
2019-04-06T03:34:20.462Z,77.60
2019-04-06T03:35:15.940Z,73.30
2019-04-06T03:36:14.875Z,71.50
2019-04-06T03:37:15.093Z,71.40
2019-04-06T03:38:14.993Z,70.70
2019-04-06T03:39:14.845Z,58.70
2019-04-06T03:40:14.853Z,70.90
2019-04-06T03:41:14.824Z,58.00
2019-04-06T03:42:14.852Z,63.50
2019-04-06T03:43:14.802Z,65.70
2019-04-06T03:44:14.789Z,58.10
2019-04-06T03:45:14.964Z,63.70
2019-04-06T03:46:14.908Z,58.30
2019-04-06T03:47:14.989Z,66.00
2019-04-06T03:48:14.742Z,63.20
2019-04-06T03:49:14.735Z,59.70
2019-04-06T03:50:14.722Z,59.40
2019-04-06T03:51:14.725Z,64.60
2019-04-06T03:52:14.742Z,62.20
2019-04-06T03:53:14.791Z,59.80
2019-04-06T03:54:14.680Z,62.50
2019-04-06T03:55:14.765Z,60.80
2019-04-06T03:56:14.692Z,61.00
2019-04-06T03:57:16.953Z,57.70
2019-04-06T03:58:14.636Z,62.30
2019-04-06T03:59:14.621Z,57.80
2019-04-06T04:00:14.610Z,61.40
2019-04-06T04:01:14.642Z,59.50
2019-04-06T04:02:14.613Z,48.60
2019-04-06T04:03:14.578Z,55.50
2019-04-06T04:04:14.563Z,55.60
2019-04-06T04:05:14.571Z,55.70
2019-04-06T04:06:14.543Z,53.40
2019-04-06T04:07:14.556Z,58.90
2019-04-06T04:08:14.521Z,56.60
2019-04-06T04:09:14.513Z,56.40
2019-04-06T04:10:14.704Z,54.90
2019-04-06T04:11:14.515Z,57.30
2019-04-06T04:12:14.472Z,56.70
2019-04-06T04:13:14.484Z,59.40
2019-04-06T04:14:14.490Z,60.00
2019-04-06T04:15:14.443Z,54.70
2019-04-06T04:16:14.427Z,55.30
2019-04-06T04:17:14.416Z,55.90
2019-04-06T04:18:14.431Z,49.40
2019-04-06T04:19:14.495Z,55.60
2019-04-06T04:20:14.382Z,57.20
2019-04-06T04:21:14.376Z,55.90
2019-04-06T04:22:14.371Z,55.00
2019-04-06T04:23:14.426Z,54.80
2019-04-06T04:24:14.342Z,55.00
2019-04-06T04:25:14.337Z,42.30
2019-04-06T04:26:14.456Z,52.60
2019-04-06T04:27:27.356Z,54.20
2019-04-06T04:28:15.324Z,52.70
2019-04-06T04:29:14.297Z,56.00
2019-04-06T04:30:15.393Z,55.20
2019-04-06T04:31:14.260Z,50.70
2019-04-06T04:32:14.277Z,53.80
2019-04-06T04:33:14.277Z,51.40
2019-04-06T04:34:14.360Z,52.60
2019-04-06T04:35:14.225Z,51.20
2019-04-06T04:36:14.584Z,53.80
2019-04-06T04:37:14.194Z,51.40
2019-04-06T04:38:14.189Z,56.80
2019-04-06T04:39:14.197Z,58.00
2019-04-06T04:40:14.168Z,54.00
2019-04-06T04:41:14.296Z,56.80
2019-04-06T04:42:14.138Z,51.30
2019-04-06T04:43:14.383Z,53.60
2019-04-06T04:44:14.213Z,60.90
2019-04-06T04:45:14.115Z,57.80
2019-04-06T04:46:14.106Z,62.20
2019-04-06T04:47:14.081Z,67.50
2019-04-06T04:48:14.098Z,59.00
2019-04-06T04:49:14.060Z,60.70
2019-04-06T04:50:14.052Z,62.30
2019-04-06T04:51:14.036Z,66.80
2019-04-06T04:52:14.085Z,66.60
2019-04-06T04:53:14.069Z,69.30
2019-04-06T04:54:14.002Z,69.70
2019-04-06T04:55:14.011Z,71.40
2019-04-06T04:56:13.994Z,71.60
2019-04-06T04:57:13.993Z,70.30
2019-04-06T04:58:13.960Z,57.70
2019-04-06T04:59:13.970Z,66.90
2019-04-06T05:00:13.934Z,68.40
2019-04-06T05:01:14.099Z,70.40
2019-04-06T05:02:13.931Z,67.90
2019-04-06T05:03:13.907Z,67.90
2019-04-06T05:04:13.890Z,68.30
2019-04-06T05:05:13.878Z,66.80
2019-04-06T05:06:13.893Z,63.00
2019-04-06T05:07:13.854Z,62.10
2019-04-06T05:08:13.848Z,61.20
2019-04-06T05:09:13.848Z,58.90
2019-04-06T05:10:13.822Z,63.00
2019-04-06T05:11:13.835Z,60.50
2019-04-06T05:12:13.800Z,61.40
2019-04-06T05:13:13.788Z,59.10
2019-04-06T05:14:13.779Z,57.50
2019-04-06T05:15:13.779Z,59.20
2019-04-06T05:16:13.772Z,59.20
2019-04-06T05:17:13.775Z,61.20
2019-04-06T05:18:13.733Z,60.90
2019-04-06T05:19:13.721Z,60.70
2019-04-06T05:20:13.715Z,59.80
2019-04-06T05:21:13.852Z,62.50
2019-04-06T05:22:13.718Z,61.10
2019-04-06T05:23:13.708Z,61.00
2019-04-06T05:24:13.664Z,52.20
2019-04-06T05:25:13.655Z,58.60
2019-04-06T05:26:13.643Z,60.10
2019-04-06T05:27:13.637Z,63.20
2019-04-06T05:28:13.645Z,59.60
2019-04-06T05:29:13.629Z,62.10
2019-04-06T05:30:13.598Z,64.10
2019-04-06T05:31:13.632Z,65.00
2019-04-06T05:32:13.665Z,61.10
2019-04-06T05:33:13.589Z,65.60
2019-04-06T05:34:13.557Z,68.80
2019-04-06T05:35:13.561Z,64.40
2019-04-06T05:36:13.573Z,65.00
2019-04-06T05:37:13.521Z,67.30
2019-04-06T05:38:13.510Z,70.50
2019-04-06T05:39:13.496Z,77.40
2019-04-06T05:40:13.488Z,79.90
2019-04-06T05:41:13.514Z,84.90
2019-04-06T05:42:13.480Z,86.60
2019-04-06T05:43:13.486Z,88.00
2019-04-06T05:44:13.446Z,84.20
2019-04-06T05:45:13.432Z,84.80
2019-04-06T05:46:13.432Z,85.50
2019-04-06T05:47:13.412Z,87.10
2019-04-06T05:48:13.444Z,90.90
2019-04-06T05:49:13.393Z,87.50
2019-04-06T05:50:13.375Z,91.40
2019-04-06T05:51:13.387Z,93.00
2019-04-06T05:52:13.361Z,89.40
2019-04-06T05:53:13.364Z,88.70
2019-04-06T05:54:13.361Z,93.90
2019-04-06T05:55:13.330Z,86.00
2019-04-06T05:56:13.391Z,92.50
2019-04-06T05:57:13.306Z,89.80
2019-04-06T05:58:13.313Z,90.00
2019-04-06T05:59:13.315Z,91.60
2019-04-06T06:00:13.266Z,89.10
2019-04-06T06:01:13.250Z,84.40
2019-04-06T06:02:13.270Z,86.40
2019-04-06T06:03:15.333Z,88.30
2019-04-06T06:04:13.219Z,85.50
2019-04-06T06:05:13.243Z,95.90
2019-04-06T06:06:13.408Z,89.10
2019-04-06T06:07:13.185Z,88.80
2019-04-06T06:08:13.191Z,88.90
2019-04-06T06:09:13.164Z,88.20
2019-04-06T06:10:13.151Z,87.70
2019-04-06T06:11:13.157Z,90.40
2019-04-06T06:12:13.160Z,88.40
2019-04-06T06:13:13.120Z,90.30
2019-04-06T06:14:13.133Z,80.10
2019-04-06T06:15:13.101Z,91.30
2019-04-06T06:16:13.083Z,85.80
2019-04-06T06:17:14.350Z,84.30
2019-04-06T06:18:13.065Z,87.60
2019-04-06T06:19:13.095Z,87.50
2019-04-06T06:20:13.038Z,82.50
2019-04-06T06:21:13.050Z,87.40
2019-04-06T06:22:13.028Z,89.70
2019-04-06T06:23:13.027Z,91.40
2019-04-06T06:24:13.204Z,83.60
2019-04-06T06:25:13.004Z,90.10
2019-04-06T06:26:13.002Z,85.10
2019-04-06T06:27:12.997Z,81.50
2019-04-06T06:28:15.051Z,82.40
2019-04-06T06:29:12.944Z,90.50
2019-04-06T06:30:12.925Z,80.00
2019-04-06T06:31:12.921Z,85.90
2019-04-06T06:32:12.903Z,83.00
2019-04-06T06:33:12.934Z,81.40
2019-04-06T06:34:12.898Z,83.10
2019-04-06T06:35:13.036Z,80.80
2019-04-06T06:36:12.881Z,86.20
2019-04-06T06:37:12.851Z,85.10
2019-04-06T06:38:12.834Z,84.60
2019-04-06T06:39:12.861Z,83.90
2019-04-06T06:40:12.813Z,85.10
2019-04-06T06:41:12.814Z,81.60
2019-04-06T06:42:13.019Z,83.50
2019-04-06T06:43:12.803Z,78.20
2019-04-06T06:44:12.766Z,75.80
2019-04-06T06:45:12.753Z,79.90
2019-04-06T06:46:12.752Z,76.00
2019-04-06T06:47:12.732Z,77.00
2019-04-06T06:48:12.755Z,78.70
2019-04-06T06:49:12.725Z,79.50
2019-04-06T06:50:12.697Z,77.70
2019-04-06T06:51:12.709Z,77.70
2019-04-06T06:52:12.679Z,80.00
2019-04-06T06:53:12.664Z,73.70
2019-04-06T06:54:13.028Z,68.50
2019-04-06T06:55:12.662Z,72.50
2019-04-06T06:56:12.636Z,72.60
2019-04-06T06:57:12.638Z,73.00
2019-04-06T06:58:12.629Z,74.70
2019-04-06T06:59:12.598Z,72.10
2019-04-06T07:00:12.902Z,72.50
2019-04-06T07:01:12.764Z,74.10
2019-04-06T07:02:12.569Z,75.60
2019-04-06T07:03:12.632Z,71.20
2019-04-06T07:04:12.583Z,69.30
2019-04-06T07:05:12.552Z,69.00
2019-04-06T07:06:13.428Z,72.10
2019-04-06T07:07:12.506Z,71.80
2019-04-06T07:08:12.508Z,70.40
2019-04-06T07:09:12.482Z,68.90
2019-04-06T07:10:12.502Z,72.60
2019-04-06T07:11:12.467Z,67.10
2019-04-06T07:12:12.472Z,65.60
2019-04-06T07:13:12.438Z,67.00
2019-04-06T07:14:12.452Z,67.30
2019-04-06T07:15:12.459Z,64.90
2019-04-06T07:16:12.405Z,65.70
2019-04-06T07:17:12.393Z,62.50
2019-04-06T07:18:12.394Z,65.80
2019-04-06T07:19:12.400Z,60.90
2019-04-06T07:20:12.511Z,61.30
2019-04-06T07:21:12.365Z,61.40
2019-04-06T07:22:12.339Z,64.10
2019-04-06T07:23:12.327Z,59.10
2019-04-06T07:24:12.337Z,63.00
2019-04-06T07:25:12.544Z,62.70
2019-04-06T07:26:12.298Z,63.00
2019-04-06T07:27:12.281Z,60.00
2019-04-06T07:28:12.269Z,63.40
2019-04-06T07:29:12.343Z,61.20
2019-04-06T07:30:12.245Z,60.70
2019-04-06T07:31:12.260Z,62.10
2019-04-06T07:32:12.232Z,59.00
2019-04-06T07:33:12.214Z,61.00
2019-04-06T07:34:12.204Z,59.80
2019-04-06T07:35:12.199Z,60.30
2019-04-06T07:36:12.359Z,56.00
2019-04-06T07:37:12.167Z,58.30
2019-04-06T07:38:12.184Z,58.30
2019-04-06T07:39:12.144Z,57.00
2019-04-06T07:40:12.135Z,57.60
2019-04-06T07:41:12.147Z,57.90
2019-04-06T07:42:12.113Z,57.20
2019-04-06T07:43:12.102Z,59.00
2019-04-06T07:44:12.119Z,53.50
2019-04-06T07:45:12.234Z,55.80
2019-04-06T07:46:12.087Z,54.50
2019-04-06T07:47:12.064Z,55.80
2019-04-06T07:48:12.195Z,55.20
2019-04-06T07:49:12.209Z,54.00
2019-04-06T07:50:12.060Z,54.10
2019-04-06T07:51:12.019Z,56.00
2019-04-06T07:52:12.021Z,53.90
2019-04-06T07:53:11.987Z,52.00
2019-04-06T07:54:12.022Z,51.30
2019-04-06T07:55:12.003Z,52.70
2019-04-06T07:56:11.959Z,50.30
2019-04-06T07:57:12.097Z,51.50
2019-04-06T07:58:11.979Z,51.00
2019-04-06T07:59:11.951Z,49.30
2019-04-06T08:00:11.943Z,50.50
2019-04-06T08:01:11.918Z,50.80
2019-04-06T08:02:11.890Z,52.50
2019-04-06T08:03:11.900Z,49.10
2019-04-06T08:04:11.963Z,50.70
2019-04-06T08:05:11.906Z,52.10
2019-04-06T08:06:11.846Z,51.20
2019-04-06T08:07:12.138Z,53.00
2019-04-06T08:08:11.822Z,52.60
2019-04-06T08:09:12.013Z,48.90
2019-04-06T08:10:11.826Z,47.00
2019-04-06T08:11:11.818Z,50.50
2019-04-06T08:12:11.776Z,52.50
2019-04-06T08:13:11.961Z,48.40
2019-04-06T08:14:11.781Z,49.80
2019-04-06T08:15:11.744Z,52.50
2019-04-06T08:16:11.777Z,49.00
2019-04-06T08:17:11.797Z,51.40
2019-04-06T08:18:11.738Z,49.70
2019-04-06T08:19:11.699Z,47.80
2019-04-06T08:20:11.761Z,48.60
2019-04-06T08:21:11.769Z,49.90
2019-04-06T08:22:11.664Z,47.80
2019-04-06T08:23:11.665Z,50.60
2019-04-06T08:24:11.869Z,50.50
2019-04-06T08:25:11.630Z,50.40
2019-04-06T08:26:11.646Z,48.60
2019-04-06T08:27:11.660Z,49.10
2019-04-06T08:28:11.626Z,48.40
2019-04-06T08:29:11.584Z,49.60
2019-04-06T08:30:11.569Z,51.50
2019-04-06T08:31:11.772Z,44.60
2019-04-06T08:32:11.549Z,48.60
2019-04-06T08:33:11.567Z,49.10
2019-04-06T08:34:13.770Z,48.00
2019-04-06T08:35:11.513Z,49.00
2019-04-06T08:36:11.638Z,48.80
2019-04-06T08:37:11.552Z,47.50
2019-04-06T08:38:11.663Z,47.00
2019-04-06T08:39:11.472Z,51.20
2019-04-06T08:40:11.490Z,49.00
2019-04-06T08:41:11.494Z,46.70
2019-04-06T08:42:11.441Z,46.80
2019-04-06T08:43:11.448Z,44.40
2019-04-06T08:44:11.414Z,47.10
2019-04-06T08:45:13.660Z,46.90
2019-04-06T08:46:11.415Z,46.00
2019-04-06T08:47:11.398Z,47.50
2019-04-06T08:48:11.366Z,47.60
2019-04-06T08:49:11.376Z,46.20
2019-04-06T08:50:11.480Z,44.40
2019-04-06T08:51:11.337Z,47.90
2019-04-06T08:52:11.757Z,47.50
2019-04-06T08:53:11.313Z,46.40
2019-04-06T08:54:11.331Z,45.30
2019-04-06T08:55:11.407Z,45.70
2019-04-06T08:56:11.276Z,45.80
2019-04-06T08:57:11.308Z,47.50
2019-04-06T08:58:11.384Z,42.60
2019-04-06T08:59:13.487Z,47.60
2019-04-06T09:00:11.231Z,44.10
2019-04-06T09:01:11.273Z,46.70
2019-04-06T09:02:11.209Z,42.60
2019-04-06T09:03:11.271Z,42.20
2019-04-06T09:04:11.189Z,40.80
2019-04-06T09:05:11.198Z,42.70
2019-04-06T09:06:11.165Z,43.70
2019-04-06T09:07:11.172Z,42.30
2019-04-06T09:08:11.228Z,40.20
2019-04-06T09:09:11.127Z,39.20
2019-04-06T09:10:11.117Z,43.50
2019-04-06T09:11:11.114Z,45.20
2019-04-06T09:12:11.102Z,43.00
2019-04-06T09:13:11.110Z,41.20
2019-04-06T09:14:11.085Z,41.60
2019-04-06T09:15:11.097Z,42.40
2019-04-06T09:16:11.164Z,43.70
2019-04-06T09:17:11.066Z,42.00
2019-04-06T09:18:11.318Z,45.20
2019-04-06T09:19:11.016Z,42.10
2019-04-06T09:20:11.042Z,43.00
2019-04-06T09:21:11.010Z,42.70
2019-04-06T09:22:10.981Z,42.90
2019-04-06T09:23:10.996Z,42.60
2019-04-06T09:24:10.987Z,41.80
2019-04-06T09:25:10.953Z,41.80
2019-04-06T09:26:10.943Z,43.70
2019-04-06T09:27:10.952Z,44.20
2019-04-06T09:28:10.921Z,41.00
2019-04-06T09:29:21.897Z,40.30
2019-04-06T09:30:11.918Z,42.00
2019-04-06T09:31:10.884Z,42.10
2019-04-06T09:32:10.901Z,42.50
2019-04-06T09:33:10.884Z,42.90
2019-04-06T09:34:10.851Z,41.30
2019-04-06T09:35:10.845Z,43.20
2019-04-06T09:36:10.841Z,41.50
2019-04-06T09:37:10.838Z,41.20
2019-04-06T09:38:10.803Z,40.10
2019-04-06T09:39:10.813Z,40.00
2019-04-06T09:40:10.813Z,41.00
2019-04-06T09:41:10.774Z,40.60
2019-04-06T09:42:10.761Z,39.50
2019-04-06T09:43:10.936Z,41.90
2019-04-06T09:44:10.747Z,38.70
2019-04-06T09:45:10.726Z,39.70
2019-04-06T09:46:10.713Z,42.30
2019-04-06T09:47:10.701Z,41.00
2019-04-06T09:48:10.716Z,38.70
2019-04-06T09:49:10.689Z,39.10
2019-04-06T09:50:10.669Z,37.60
2019-04-06T09:51:10.666Z,35.70
2019-04-06T09:52:10.737Z,37.20
2019-04-06T09:53:10.990Z,37.00
2019-04-06T09:54:10.623Z,39.30
2019-04-06T09:55:10.611Z,39.50
2019-04-06T09:56:10.656Z,36.00
2019-04-06T09:57:10.623Z,37.70
2019-04-06T09:58:10.594Z,36.60
2019-04-06T09:59:10.591Z,35.00
2019-04-06T10:00:10.557Z,36.00
2019-04-06T10:01:10.550Z,37.70
2019-04-06T10:02:10.540Z,37.50
2019-04-06T10:03:10.535Z,35.00
2019-04-06T10:04:10.765Z,35.80
2019-04-06T10:05:10.695Z,37.70
2019-04-06T10:06:10.487Z,34.00
2019-04-06T10:07:10.481Z,34.10
2019-04-06T10:08:10.493Z,34.80
2019-04-06T10:09:10.480Z,34.80
2019-04-06T10:10:10.443Z,35.30
2019-04-06T10:11:10.431Z,34.20
2019-04-06T10:12:10.419Z,35.20
2019-04-06T10:13:10.408Z,34.20
2019-04-06T10:14:10.418Z,34.90
2019-04-06T10:15:10.460Z,35.50
2019-04-06T10:16:10.378Z,33.70
2019-04-06T10:17:10.369Z,35.60
2019-04-06T10:18:10.638Z,32.00
2019-04-06T10:19:10.342Z,33.00
2019-04-06T10:20:10.579Z,33.10
2019-04-06T10:21:10.318Z,32.80
2019-04-06T10:22:10.307Z,32.50
2019-04-06T10:23:10.295Z,33.40
2019-04-06T10:24:10.284Z,31.50
2019-04-06T10:25:11.408Z,31.90
2019-04-06T10:26:10.280Z,30.70
2019-04-06T10:27:10.257Z,32.30
2019-04-06T10:28:10.272Z,32.10
2019-04-06T10:29:10.249Z,32.80
2019-04-06T10:30:10.219Z,33.60
2019-04-06T10:31:10.436Z,31.70
2019-04-06T10:32:10.243Z,33.40
2019-04-06T10:33:10.193Z,33.40
2019-04-06T10:34:10.198Z,34.10
2019-04-06T10:35:10.383Z,34.40
2019-04-06T10:36:10.154Z,32.50
2019-04-06T10:37:10.138Z,33.50
2019-04-06T10:38:10.128Z,33.40
2019-04-06T10:39:10.152Z,33.60
2019-04-06T10:40:10.173Z,31.80
2019-04-06T10:41:10.100Z,32.30
2019-04-06T10:42:10.378Z,31.60
2019-04-06T10:43:10.072Z,29.30
2019-04-06T10:44:10.111Z,32.20
2019-04-06T10:45:10.050Z,32.30
2019-04-06T10:46:10.055Z,30.30
2019-04-06T10:47:10.304Z,31.40
2019-04-06T10:48:10.046Z,30.60
2019-04-06T10:49:10.041Z,31.50
2019-04-06T10:50:10.002Z,30.80
2019-04-06T10:51:09.981Z,31.30
2019-04-06T10:52:09.984Z,30.30
2019-04-06T10:53:10.108Z,30.70
2019-04-06T10:54:09.955Z,30.40
2019-04-06T10:55:09.962Z,29.10
2019-04-06T10:56:10.170Z,27.90
2019-04-06T10:57:09.981Z,25.10
2019-04-06T10:58:09.928Z,25.60
2019-04-06T10:59:09.896Z,25.00
2019-04-06T11:00:09.924Z,24.40
2019-04-06T11:01:10.090Z,25.70
2019-04-06T11:02:09.872Z,24.80
2019-04-06T11:03:09.850Z,25.60
2019-04-06T11:04:10.973Z,24.10
2019-04-06T11:05:09.825Z,24.20
2019-04-06T11:06:09.814Z,24.20
2019-04-06T11:07:09.803Z,23.90
2019-04-06T11:08:09.809Z,25.80
2019-04-06T11:09:09.816Z,26.40
2019-04-06T11:10:09.774Z,25.70
2019-04-06T11:11:09.757Z,26.10
2019-04-06T11:12:09.779Z,25.90
2019-04-06T11:13:09.736Z,24.30
2019-04-06T11:14:09.740Z,26.30
2019-04-06T11:15:09.712Z,24.30
2019-04-06T11:16:09.701Z,26.40
2019-04-06T11:17:09.947Z,26.00
2019-04-06T11:18:09.702Z,26.90
2019-04-06T11:19:09.696Z,27.10
2019-04-06T11:20:09.656Z,26.50
2019-04-06T11:21:09.784Z,25.50
2019-04-06T11:22:09.650Z,26.50
2019-04-06T11:23:09.644Z,26.30
2019-04-06T11:24:09.634Z,25.80
2019-04-06T11:25:09.599Z,24.30
2019-04-06T11:26:09.603Z,22.90
2019-04-06T11:27:09.578Z,22.10
2019-04-06T11:28:09.770Z,22.00
2019-04-06T11:29:09.566Z,23.00
2019-04-06T11:30:13.713Z,23.00
2019-04-06T11:31:10.533Z,23.50
2019-04-06T11:32:09.839Z,24.00
2019-04-06T11:33:09.527Z,23.90
2019-04-06T11:34:09.502Z,22.40
2019-04-06T11:35:09.488Z,22.50
2019-04-06T11:36:09.515Z,21.30
2019-04-06T11:37:09.583Z,21.00
2019-04-06T11:38:09.456Z,22.00
2019-04-06T11:39:09.451Z,20.50
2019-04-06T11:40:09.441Z,20.20
2019-04-06T11:41:09.443Z,19.70
2019-04-06T11:42:09.411Z,24.10
2019-04-06T11:43:09.432Z,24.50
2019-04-06T11:44:09.511Z,24.90
2019-04-06T11:45:09.422Z,24.30
2019-04-06T11:46:09.700Z,24.90
2019-04-06T11:47:09.358Z,24.90
2019-04-06T11:48:09.406Z,23.10
2019-04-06T11:49:09.337Z,23.60
2019-04-06T11:50:09.390Z,23.50
2019-04-06T11:51:09.582Z,22.80
2019-04-06T11:52:09.321Z,22.80
2019-04-06T11:53:09.289Z,20.60
2019-04-06T11:54:09.284Z,21.40
2019-04-06T11:55:09.266Z,21.10
2019-04-06T11:56:09.370Z,21.70
2019-04-06T11:57:09.306Z,20.90
2019-04-06T11:58:09.238Z,21.30
2019-04-06T11:59:09.222Z,20.70
2019-04-06T12:00:09.455Z,21.00
2019-04-06T12:01:09.235Z,20.80
2019-04-06T12:02:09.192Z,22.50
2019-04-06T12:03:09.218Z,21.60
2019-04-06T12:04:09.165Z,21.20
2019-04-06T12:05:09.157Z,20.80
2019-04-06T12:06:09.146Z,19.60
2019-04-06T12:07:09.149Z,18.60
2019-04-06T12:08:09.128Z,18.40
2019-04-06T12:09:09.281Z,19.40
2019-04-06T12:10:09.330Z,19.00
2019-04-06T12:11:09.091Z,18.20
2019-04-06T12:12:09.078Z,19.30
2019-04-06T12:13:09.099Z,18.00
2019-04-06T12:14:09.062Z,18.10
2019-04-06T12:15:09.045Z,17.60
2019-04-06T12:16:09.079Z,18.20
2019-04-06T12:17:09.135Z,18.50
2019-04-06T12:18:09.032Z,22.80
2019-04-06T12:19:09.022Z,21.10
2019-04-06T12:20:09.003Z,20.70
2019-04-06T12:21:08.978Z,20.50
2019-04-06T12:22:08.991Z,19.80
2019-04-06T12:23:08.955Z,19.60
2019-04-06T12:24:08.945Z,19.30
2019-04-06T12:25:08.948Z,18.70
2019-04-06T12:26:08.947Z,19.90
2019-04-06T12:27:09.019Z,18.50
2019-04-06T12:28:08.900Z,19.50
2019-04-06T12:29:08.896Z,20.80
2019-04-06T12:30:08.877Z,21.60
2019-04-06T12:31:08.891Z,20.20
2019-04-06T12:32:08.901Z,19.60
2019-04-06T12:33:08.907Z,20.20
2019-04-06T12:34:08.935Z,19.50
2019-04-06T12:35:08.829Z,19.00
2019-04-06T12:36:08.816Z,19.10
2019-04-06T12:37:08.801Z,19.00
2019-04-06T12:38:08.813Z,19.00
2019-04-06T12:39:08.898Z,18.80
2019-04-06T12:40:09.146Z,18.10
2019-04-06T12:41:08.754Z,18.50
2019-04-06T12:42:08.743Z,20.00
2019-04-06T12:43:08.772Z,20.90
2019-04-06T12:44:08.752Z,22.90
2019-04-06T12:45:08.733Z,22.10
2019-04-06T12:46:08.980Z,21.10
2019-04-06T12:47:08.769Z,21.10
2019-04-06T12:48:08.689Z,21.10
2019-04-06T12:49:08.664Z,20.00
2019-04-06T12:50:08.681Z,20.70